Airfield :
LOGIN :

Register | Disclaimer

   EN    FR    IT 

 










Legend :    VFR   Marginal VFR   IFR   Intensive IFR   Very Intensive IFR
Visi :
Ceiling :
>= 8 km
>= 3000ft
5 to 8 km
1000 to 3000 ft
1500m to 5 km
500 to 1000 ft
800 to 1500m
200 to 500 ft
< 800m
< 200 ft
Symbols :   Thunderstorms  Fog  Heavy snow  Heavy precipitations  Wind > 20 kt
SIGMETs :     Misc.  Thunderstorms  Icing  Turbulence  Mountain Waves  Volcanic Ashes







- Airport Elevation : 364 ft
- IATA code : FRA


EDDF - Frankfurt Int.

CURRENT METAR :
  • 262350Z 02010KT CAVOK 20/13 Q1011 NOSIG

EXPIRED METARs :
  • 262320Z 03007KT CAVOK 20/13 Q1011 NOSIG
  • 262250Z 03006KT CAVOK 21/13 Q1011 NOSIG
  • 262220Z 03007KT CAVOK 21/13 Q1011 NOSIG
  • 262150Z 02007KT CAVOK 21/13 Q1011 NOSIG
  • 262120Z 36008KT CAVOK 21/13 Q1011 NOSIG

TAF TAF EDDF
Valid from the 27 at 00:00 until the 28 at 06:00 UTC


262300Z 2700/2806 04008KT CAVOK
TEMPO 2704/2711 SHRA SCT040CB
PROB30
TEMPO 2704/2709 TSRA
PROB40
TEMPO 2716/2806 SHRA SCT045CB
PROB30
TEMPO 2716/2806 21015G25KT TSRA BKN040CB
No reported NOTAMs for that airfield.
1 SIGMET reported for the Langen FIR (EDGG) :
 
Embedded thunderstorms
EDGG SIGMET 2 VALID 262200/270100 EDZF
EDGG LANGEN FIR EMBD TS FCST SW OF LINE N4930 E00630 - N4845 E00945 TOP FL390 MOV NE NC=



MET'MAP, your aeronautical weather chart ! - Copyright ORBIFLY December 2007 - Disclaimer

ORBIFLY MET'MAP TEAM :

Programming & Development : Alexandra Zaïnal
Concept & Development : Baudouin d'Aumeries
Co-Development & Prog : Marc-Olivier Méhu
Technical & hardware support : Manuel Goepfert

Contact : metmap@orbifly.com




SOURCES & CREDITS :

   NOAA